»·PEaware :: AAL1833 KPSP-KPHX

AAL1833 :: KPSP-KPHX

FLIGHT INFORMATION

Flight Status: Arrived
Operator:
American Airlines
More flights by this operator :: More flights under this callsign
Pilot: Alfredo R. (12181)
Aircraft: AIRBUS A320
(A320)
More flights by this aircraft type
Origin: KPSP Palm Springs Intl
United States
Destination: KPHX Phoenix Sky Harbor Intl
United States
More flights between these airports :: More routes between these airports
Route: +CATH1 PSP BLH HYDDR1
File this flight plan on PilotEdge
Remarks:
Altitude:
(Current/Filed)
290ft
Speed:
(Current/Filed)
425kts
Departed: 01-Feb-20 01:40 PM
Arrived: 01-Feb-20 02:27 PM
Distance/Time
Traveled:
226nm/0:47
Distance/Time
To Go:
Arrived

Flight Plot

Page will automatically refresh every two minutes.

Flight plan parsing failed; only flown route is shown


Map Options




Map Legend


Flown Route
Filed Route
Departure Airport
Arrival Airport
Navaid (VOR, NDB)
Fix

Horizontal Profiles

Position Reports

Time Latitude Longitude Heading Altitude Ground
Speed
01-Feb-20 12:51 33.822554 -116.506235 324 414ft 0kts
01-Feb-20 12:52 33.822554 -116.506235 324 414ft 0kts
01-Feb-20 12:53 33.822554 -116.506235 324 414ft 0kts
01-Feb-20 12:54 33.822554 -116.506235 324 414ft 0kts
01-Feb-20 12:55 33.822554 -116.506235 324 414ft 0kts
01-Feb-20 12:56 33.822554 -116.506235 324 414ft 0kts
01-Feb-20 12:57 33.822554 -116.506235 324 414ft 0kts
01-Feb-20 12:58 33.822554 -116.506235 324 414ft 0kts
01-Feb-20 12:59 33.822554 -116.506235 324 414ft 0kts
01-Feb-20 13:00 33.822554 -116.506235 324 414ft 0kts
01-Feb-20 13:01 33.822554 -116.506235 324 414ft 0kts
01-Feb-20 13:02 33.822554 -116.506235 324 414ft 0kts
01-Feb-20 13:03 33.822554 -116.506235 324 414ft 0kts
01-Feb-20 13:04 33.822554 -116.506235 324 414ft 0kts
01-Feb-20 13:05 33.822554 -116.506235 324 414ft 0kts
01-Feb-20 13:06 33.822554 -116.506235 324 414ft 0kts
01-Feb-20 13:07 33.822554 -116.506235 324 414ft 0kts
01-Feb-20 13:08 33.822554 -116.506235 324 414ft 0kts
01-Feb-20 13:09 33.822554 -116.506235 324 414ft 0kts
01-Feb-20 13:10 33.822554 -116.506235 324 414ft 0kts
01-Feb-20 13:11 33.822554 -116.506235 324 414ft 0kts
01-Feb-20 13:12 33.822554 -116.506235 324 414ft 0kts
01-Feb-20 13:13 33.822554 -116.506235 324 414ft 0kts
01-Feb-20 13:14 33.822554 -116.506235 324 414ft 0kts
01-Feb-20 13:15 33.822554 -116.506235 324 414ft 0kts
01-Feb-20 13:16 33.822554 -116.506235 324 414ft 0kts
01-Feb-20 13:17 33.822554 -116.506235 324 414ft 0kts
01-Feb-20 13:18 33.822554 -116.506235 324 414ft 0kts
01-Feb-20 13:19 33.822554 -116.506235 324 414ft 0kts
01-Feb-20 13:20 33.822554 -116.506235 324 414ft 0kts
01-Feb-20 13:21 33.822147 -116.505895 337 413ft 2kts
01-Feb-20 13:22 33.821795 -116.505950 30 412ft 0kts
01-Feb-20 13:23 33.821795 -116.505950 30 412ft 0kts
01-Feb-20 13:24 33.821795 -116.505950 30 412ft 0kts
01-Feb-20 13:25 33.821795 -116.505950 30 412ft 0kts
01-Feb-20 13:26 33.821795 -116.505950 30 412ft 0kts
01-Feb-20 13:27 33.821795 -116.505950 30 412ft 0kts
01-Feb-20 13:28 33.821795 -116.505950 30 412ft 0kts
01-Feb-20 13:29 33.821795 -116.505949 30 412ft 0kts
01-Feb-20 13:30 33.822327 -116.505415 48 413ft 3kts
01-Feb-20 13:31 33.822904 -116.504431 52 413ft 8kts
01-Feb-20 13:32 33.825179 -116.505723 323 419ft 14kts
01-Feb-20 13:33 33.829243 -116.509432 323 432ft 17kts
01-Feb-20 13:34 33.833453 -116.513182 323 448ft 16kts
01-Feb-20 13:35 33.836662 -116.515927 334 465ft 13kts
01-Feb-20 13:36 33.839429 -116.517778 5 474ft 5kts
01-Feb-20 13:37 33.839547 -116.517740 20 474ft 0kts
01-Feb-20 13:38 33.839547 -116.517740 20 474ft 0kts
01-Feb-20 13:39 33.838123 -116.515180 143 464ft 58kts
01-Feb-20 13:40 33.806882 -116.485628 135 1819ft 172kts
01-Feb-20 13:41 33.786405 -116.430777 96 3148ft 222kts
01-Feb-20 13:42 33.825386 -116.365630 71 5839ft 259kts
01-Feb-20 13:43 33.805497 -116.280838 112 8908ft 279kts
01-Feb-20 13:44 33.741851 -116.230351 195 10759ft 356kts
01-Feb-20 13:45 33.664738 -116.313408 197 12992ft 374kts
01-Feb-20 13:46 33.585074 -116.260554 101 12991ft 359kts
01-Feb-20 13:47 33.561959 -116.141489 99 13242ft 368kts
01-Feb-20 13:48 33.575150 -116.019946 85 15976ft 382kts
01-Feb-20 13:49 33.579531 -115.887937 88 18262ft 404kts
01-Feb-20 13:50 33.582267 -115.750139 88 20663ft 417kts
01-Feb-20 13:51 33.584747 -115.611914 88 23510ft 409kts
01-Feb-20 13:52 33.587031 -115.475935 89 25989ft 402kts
01-Feb-20 13:54 33.589110 -115.343131 89 28206ft 394kts
01-Feb-20 13:55 33.590595 -115.213024 89 29312ft 392kts
01-Feb-20 13:56 33.592349 -115.083160 89 29309ft 389kts
01-Feb-20 13:57 33.593959 -114.954013 89 29311ft 389kts
01-Feb-20 13:58 33.595462 -114.823196 89 29311ft 389kts
01-Feb-20 13:59 33.590098 -114.693844 95 29315ft 389kts
01-Feb-20 14:00 33.578633 -114.563579 95 29248ft 389kts
01-Feb-20 14:01 33.536586 -114.444907 107 28732ft 392kts
01-Feb-20 14:02 33.509909 -114.318783 103 27263ft 394kts
01-Feb-20 14:03 33.484216 -114.190250 102 25763ft 397kts
01-Feb-20 14:04 33.458421 -114.060374 103 24659ft 401kts
01-Feb-20 14:05 33.432289 -113.930005 103 23606ft 404kts
01-Feb-20 14:06 33.405699 -113.797405 102 22137ft 416kts
01-Feb-20 14:07 33.378963 -113.664950 102 20601ft 390kts
01-Feb-20 14:08 33.353179 -113.538040 102 19101ft 386kts
01-Feb-20 14:09 33.329245 -113.412790 100 17803ft 379kts
01-Feb-20 14:09 33.311290 -113.310125 101 16796ft 372kts
01-Feb-20 14:11 33.288681 -113.169498 98 15361ft 346kts
01-Feb-20 14:12 33.273868 -113.060680 90 14137ft 325kts
01-Feb-20 14:12 33.276783 -112.971404 87 13145ft 318kts
01-Feb-20 14:14 33.280303 -112.853355 82 11702ft 291kts
01-Feb-20 14:15 33.301931 -112.763424 63 11019ft 285kts
01-Feb-20 14:15 33.329526 -112.691041 64 11018ft 286kts
01-Feb-20 14:16 33.362565 -112.604714 64 9851ft 266kts
01-Feb-20 14:18 33.394648 -112.520401 64 8735ft 233kts
01-Feb-20 14:18 33.415823 -112.461766 65 7881ft 227kts
01-Feb-20 14:19 33.428739 -112.388731 89 6884ft 227kts
01-Feb-20 14:20 33.428741 -112.313021 88 5858ft 223kts
01-Feb-20 14:21 33.431556 -112.239214 81 5001ft 215kts
01-Feb-20 14:22 33.435162 -112.168578 86 4433ft 197kts
01-Feb-20 14:23 33.437761 -112.105738 85 3204ft 176kts
01-Feb-20 14:24 33.439552 -112.052800 85 1852ft 141kts
01-Feb-20 14:25 33.440861 -112.014226 90 1139ft 49kts
01-Feb-20 14:26 33.439753 -112.010330 96 1139ft 13kts
01-Feb-20 14:27 33.438772 -112.003587 140 1139ft 10kts
01-Feb-20 14:28 33.437994 -112.002471 115 1139ft 0kts
01-Feb-20 14:29 33.437994 -112.002471 115 1139ft 0kts
01-Feb-20 14:30 33.437994 -112.002471 115 1139ft 0kts
01-Feb-20 14:31 33.437994 -112.002471 115 1139ft 0kts

Navigation Log

Ident Type
Flight plan parsing failed, navigation log unavailable